sensor_id;sensor_type;location;lat;lon;timestamp;P1;durP1;ratioP1;P2;durP2;ratioP2
18720;SDS011;9489;50.948;3.114;2023-05-10T00:00:57;21.73;;;17.75;;
18720;SDS011;9489;50.948;3.114;2023-05-10T00:03:22;22.80;;;17.88;;
18720;SDS011;9489;50.948;3.114;2023-05-10T00:05:48;24.52;;;18.92;;
18720;SDS011;9489;50.948;3.114;2023-05-10T00:08:14;22.30;;;17.67;;
18720;SDS011;9489;50.948;3.114;2023-05-10T00:10:40;22.30;;;17.73;;
18720;SDS011;9489;50.948;3.114;2023-05-10T00:13:06;26.05;;;20.05;;
18720;SDS011;9489;50.948;3.114;2023-05-10T00:15:31;23.55;;;19.08;;
18720;SDS011;9489;50.948;3.114;2023-05-10T00:17:57;24.13;;;18.95;;
18720;SDS011;9489;50.948;3.114;2023-05-10T00:20:23;28.45;;;22.42;;
18720;SDS011;9489;50.948;3.114;2023-05-10T00:22:48;27.38;;;22.42;;
18720;SDS011;9489;50.948;3.114;2023-05-10T00:25:14;30.05;;;23.60;;
18720;SDS011;9489;50.948;3.114;2023-05-10T00:27:40;28.48;;;22.73;;
18720;SDS011;9489;50.948;3.114;2023-05-10T00:30:05;31.33;;;23.92;;
18720;SDS011;9489;50.948;3.114;2023-05-10T00:32:32;29.92;;;23.80;;
18720;SDS011;9489;50.948;3.114;2023-05-10T00:34:57;30.92;;;23.38;;
18720;SDS011;9489;50.948;3.114;2023-05-10T00:37:23;29.55;;;22.88;;
18720;SDS011;9489;50.948;3.114;2023-05-10T00:39:50;31.95;;;22.70;;
18720;SDS011;9489;50.948;3.114;2023-05-10T00:42:15;29.85;;;24.10;;
18720;SDS011;9489;50.948;3.114;2023-05-10T00:44:41;30.20;;;23.33;;
18720;SDS011;9489;50.948;3.114;2023-05-10T00:47:07;29.75;;;22.50;;
18720;SDS011;9489;50.948;3.114;2023-05-10T00:49:33;30.95;;;22.58;;
18720;SDS011;9489;50.948;3.114;2023-05-10T00:51:59;30.35;;;23.08;;
18720;SDS011;9489;50.948;3.114;2023-05-10T00:54:27;32.92;;;23.05;;
18720;SDS011;9489;50.948;3.114;2023-05-10T00:56:52;31.92;;;21.92;;
18720;SDS011;9489;50.948;3.114;2023-05-10T00:59:18;28.65;;;22.17;;
18720;SDS011;9489;50.948;3.114;2023-05-10T01:01:45;26.92;;;22.08;;
18720;SDS011;9489;50.948;3.114;2023-05-10T01:04:14;30.50;;;23.17;;
18720;SDS011;9489;50.948;3.114;2023-05-10T01:06:43;32.50;;;21.90;;
18720;SDS011;9489;50.948;3.114;2023-05-10T01:09:09;28.00;;;20.05;;
18720;SDS011;9489;50.948;3.114;2023-05-10T01:11:36;27.42;;;20.15;;
18720;SDS011;9489;50.948;3.114;2023-05-10T01:14:03;28.67;;;20.25;;
18720;SDS011;9489;50.948;3.114;2023-05-10T01:16:32;22.23;;;18.60;;
18720;SDS011;9489;50.948;3.114;2023-05-10T01:19:01;25.40;;;18.45;;
18720;SDS011;9489;50.948;3.114;2023-05-10T01:21:35;25.77;;;19.05;;
18720;SDS011;9489;50.948;3.114;2023-05-10T01:35:12;28.77;;;22.08;;
18720;SDS011;9489;50.948;3.114;2023-05-10T01:43:14;27.10;;;22.05;;
18720;SDS011;9489;50.948;3.114;2023-05-10T01:45:53;29.30;;;22.75;;
18720;SDS011;9489;50.948;3.114;2023-05-10T01:48:40;27.20;;;22.88;;
18720;SDS011;9489;50.948;3.114;2023-05-10T01:51:16;29.92;;;24.30;;
18720;SDS011;9489;50.948;3.114;2023-05-10T01:53:47;33.10;;;24.60;;
18720;SDS011;9489;50.948;3.114;2023-05-10T01:56:13;27.38;;;23.75;;
18720;SDS011;9489;50.948;3.114;2023-05-10T01:58:40;35.28;;;27.08;;
18720;SDS011;9489;50.948;3.114;2023-05-10T02:01:10;34.05;;;24.92;;
18720;SDS011;9489;50.948;3.114;2023-05-10T02:03:38;31.83;;;24.85;;
18720;SDS011;9489;50.948;3.114;2023-05-10T02:06:05;33.80;;;25.50;;
18720;SDS011;9489;50.948;3.114;2023-05-10T02:08:32;31.90;;;25.88;;
18720;SDS011;9489;50.948;3.114;2023-05-10T02:11:00;31.95;;;25.48;;
18720;SDS011;9489;50.948;3.114;2023-05-10T02:13:27;35.22;;;24.70;;
18720;SDS011;9489;50.948;3.114;2023-05-10T02:15:54;32.10;;;25.42;;
18720;SDS011;9489;50.948;3.114;2023-05-10T02:18:22;35.80;;;26.15;;
18720;SDS011;9489;50.948;3.114;2023-05-10T02:20:50;33.30;;;25.67;;
18720;SDS011;9489;50.948;3.114;2023-05-10T02:23:19;31.27;;;23.55;;
18720;SDS011;9489;50.948;3.114;2023-05-10T02:25:45;32.65;;;23.80;;
18720;SDS011;9489;50.948;3.114;2023-05-10T02:28:14;33.63;;;24.83;;
18720;SDS011;9489;50.948;3.114;2023-05-10T02:30:40;31.77;;;24.10;;
18720;SDS011;9489;50.948;3.114;2023-05-10T02:33:07;33.03;;;24.00;;
18720;SDS011;9489;50.948;3.114;2023-05-10T02:35:34;33.20;;;26.67;;
18720;SDS011;9489;50.948;3.114;2023-05-10T02:38:01;37.88;;;26.45;;
18720;SDS011;9489;50.948;3.114;2023-05-10T02:40:27;36.92;;;26.77;;
18720;SDS011;9489;50.948;3.114;2023-05-10T02:42:54;38.22;;;27.48;;
18720;SDS011;9489;50.948;3.114;2023-05-10T02:45:21;36.88;;;27.25;;
18720;SDS011;9489;50.948;3.114;2023-05-10T02:47:51;41.25;;;30.15;;
18720;SDS011;9489;50.948;3.114;2023-05-10T02:50:17;40.78;;;29.85;;
18720;SDS011;9489;50.948;3.114;2023-05-10T02:52:47;41.97;;;29.17;;
18720;SDS011;9489;50.948;3.114;2023-05-10T02:55:19;42.63;;;31.98;;
18720;SDS011;9489;50.948;3.114;2023-05-10T02:57:57;43.90;;;29.92;;
18720;SDS011;9489;50.948;3.114;2023-05-10T03:00:25;42.67;;;30.70;;
18720;SDS011;9489;50.948;3.114;2023-05-10T03:02:51;46.00;;;32.53;;
18720;SDS011;9489;50.948;3.114;2023-05-10T03:05:17;50.88;;;32.60;;
18720;SDS011;9489;50.948;3.114;2023-05-10T03:07:43;52.83;;;33.97;;
18720;SDS011;9489;50.948;3.114;2023-05-10T03:10:10;49.97;;;34.03;;
18720;SDS011;9489;50.948;3.114;2023-05-10T03:18:23;48.45;;;32.15;;
18720;SDS011;9489;50.948;3.114;2023-05-10T03:20:58;51.83;;;32.58;;
18720;SDS011;9489;50.948;3.114;2023-05-10T03:23:32;50.92;;;33.28;;
18720;SDS011;9489;50.948;3.114;2023-05-10T03:26:12;51.00;;;32.13;;
18720;SDS011;9489;50.948;3.114;2023-05-10T03:28:43;51.15;;;33.42;;
18720;SDS011;9489;50.948;3.114;2023-05-10T03:31:09;52.00;;;32.78;;
18720;SDS011;9489;50.948;3.114;2023-05-10T03:33:35;44.75;;;31.13;;
18720;SDS011;9489;50.948;3.114;2023-05-10T03:36:10;47.53;;;30.65;;
18720;SDS011;9489;50.948;3.114;2023-05-10T03:38:36;50.72;;;32.63;;
18720;SDS011;9489;50.948;3.114;2023-05-10T03:41:01;46.78;;;31.63;;
18720;SDS011;9489;50.948;3.114;2023-05-10T03:43:27;44.55;;;30.95;;
18720;SDS011;9489;50.948;3.114;2023-05-10T03:45:52;47.63;;;32.05;;
18720;SDS011;9489;50.948;3.114;2023-05-10T03:48:18;50.05;;;32.70;;
18720;SDS011;9489;50.948;3.114;2023-05-10T03:50:44;51.78;;;32.58;;
18720;SDS011;9489;50.948;3.114;2023-05-10T03:53:10;51.55;;;33.25;;
18720;SDS011;9489;50.948;3.114;2023-05-10T03:55:37;49.97;;;32.40;;
18720;SDS011;9489;50.948;3.114;2023-05-10T03:58:03;56.45;;;33.38;;
18720;SDS011;9489;50.948;3.114;2023-05-10T04:00:28;61.15;;;33.97;;
18720;SDS011;9489;50.948;3.114;2023-05-10T04:02:55;53.00;;;33.08;;
18720;SDS011;9489;50.948;3.114;2023-05-10T04:05:20;57.17;;;34.03;;
18720;SDS011;9489;50.948;3.114;2023-05-10T04:07:46;54.65;;;33.58;;
18720;SDS011;9489;50.948;3.114;2023-05-10T04:10:14;59.53;;;33.72;;
18720;SDS011;9489;50.948;3.114;2023-05-10T04:12:41;60.30;;;33.35;;
18720;SDS011;9489;50.948;3.114;2023-05-10T04:15:06;50.22;;;32.20;;
18720;SDS011;9489;50.948;3.114;2023-05-10T04:17:33;52.83;;;33.80;;
18720;SDS011;9489;50.948;3.114;2023-05-10T04:19:59;56.78;;;32.75;;
18720;SDS011;9489;50.948;3.114;2023-05-10T04:22:24;55.83;;;33.10;;
18720;SDS011;9489;50.948;3.114;2023-05-10T04:24:50;56.60;;;31.42;;
18720;SDS011;9489;50.948;3.114;2023-05-10T04:27:15;51.13;;;31.35;;
18720;SDS011;9489;50.948;3.114;2023-05-10T04:29:41;47.83;;;30.05;;
18720;SDS011;9489;50.948;3.114;2023-05-10T04:32:07;49.50;;;30.48;;
18720;SDS011;9489;50.948;3.114;2023-05-10T04:34:35;49.03;;;31.88;;
18720;SDS011;9489;50.948;3.114;2023-05-10T04:37:01;47.72;;;30.33;;
18720;SDS011;9489;50.948;3.114;2023-05-10T04:39:26;52.50;;;29.70;;
18720;SDS011;9489;50.948;3.114;2023-05-10T04:41:52;49.78;;;30.65;;
18720;SDS011;9489;50.948;3.114;2023-05-10T04:44:18;48.92;;;29.25;;
18720;SDS011;9489;50.948;3.114;2023-05-10T04:46:43;41.78;;;28.17;;
18720;SDS011;9489;50.948;3.114;2023-05-10T04:49:09;46.17;;;29.52;;
18720;SDS011;9489;50.948;3.114;2023-05-10T04:51:34;46.85;;;29.02;;
18720;SDS011;9489;50.948;3.114;2023-05-10T04:54:00;49.28;;;30.30;;
18720;SDS011;9489;50.948;3.114;2023-05-10T04:56:26;46.20;;;30.20;;
18720;SDS011;9489;50.948;3.114;2023-05-10T04:58:51;47.80;;;30.67;;
18720;SDS011;9489;50.948;3.114;2023-05-10T05:01:17;43.78;;;28.70;;
18720;SDS011;9489;50.948;3.114;2023-05-10T05:03:43;44.63;;;27.85;;
18720;SDS011;9489;50.948;3.114;2023-05-10T05:06:09;42.83;;;28.83;;
18720;SDS011;9489;50.948;3.114;2023-05-10T05:08:34;38.42;;;26.30;;
18720;SDS011;9489;50.948;3.114;2023-05-10T05:11:00;41.08;;;27.80;;
18720;SDS011;9489;50.948;3.114;2023-05-10T05:13:26;41.78;;;27.42;;
18720;SDS011;9489;50.948;3.114;2023-05-10T05:15:51;41.95;;;27.60;;
18720;SDS011;9489;50.948;3.114;2023-05-10T05:18:18;39.78;;;27.02;;
18720;SDS011;9489;50.948;3.114;2023-05-10T05:20:43;37.97;;;25.25;;
18720;SDS011;9489;50.948;3.114;2023-05-10T05:23:09;33.75;;;25.50;;
18720;SDS011;9489;50.948;3.114;2023-05-10T05:25:35;33.00;;;22.60;;
18720;SDS011;9489;50.948;3.114;2023-05-10T05:28:01;31.17;;;23.83;;
18720;SDS011;9489;50.948;3.114;2023-05-10T05:30:26;45.33;;;24.35;;
18720;SDS011;9489;50.948;3.114;2023-05-10T05:32:52;37.22;;;25.15;;
18720;SDS011;9489;50.948;3.114;2023-05-10T05:35:18;31.05;;;22.85;;
18720;SDS011;9489;50.948;3.114;2023-05-10T05:37:43;33.67;;;29.93;;
18720;SDS011;9489;50.948;3.114;2023-05-10T05:40:12;40.08;;;28.20;;
18720;SDS011;9489;50.948;3.114;2023-05-10T05:42:38;34.08;;;26.92;;
18720;SDS011;9489;50.948;3.114;2023-05-10T05:45:03;35.72;;;28.05;;
18720;SDS011;9489;50.948;3.114;2023-05-10T05:47:30;38.95;;;27.30;;
18720;SDS011;9489;50.948;3.114;2023-05-10T05:49:55;36.42;;;25.77;;
18720;SDS011;9489;50.948;3.114;2023-05-10T05:52:21;29.63;;;24.00;;
18720;SDS011;9489;50.948;3.114;2023-05-10T05:54:47;38.88;;;25.35;;
18720;SDS011;9489;50.948;3.114;2023-05-10T05:57:12;34.38;;;24.45;;
18720;SDS011;9489;50.948;3.114;2023-05-10T05:59:38;31.98;;;25.55;;
18720;SDS011;9489;50.948;3.114;2023-05-10T06:02:09;31.60;;;24.13;;
18720;SDS011;9489;50.948;3.114;2023-05-10T06:04:35;35.22;;;24.88;;
18720;SDS011;9489;50.948;3.114;2023-05-10T06:07:01;31.13;;;25.50;;
18720;SDS011;9489;50.948;3.114;2023-05-10T06:09:26;32.05;;;26.10;;
18720;SDS011;9489;50.948;3.114;2023-05-10T06:11:52;29.63;;;25.60;;
18720;SDS011;9489;50.948;3.114;2023-05-10T06:14:19;32.38;;;25.85;;
18720;SDS011;9489;50.948;3.114;2023-05-10T06:16:46;32.33;;;27.60;;
18720;SDS011;9489;50.948;3.114;2023-05-10T06:19:11;31.90;;;26.33;;
18720;SDS011;9489;50.948;3.114;2023-05-10T06:21:37;30.80;;;26.13;;
18720;SDS011;9489;50.948;3.114;2023-05-10T06:24:03;31.90;;;27.33;;
18720;SDS011;9489;50.948;3.114;2023-05-10T06:26:30;32.50;;;27.65;;
18720;SDS011;9489;50.948;3.114;2023-05-10T06:28:56;31.67;;;27.13;;
18720;SDS011;9489;50.948;3.114;2023-05-10T06:31:21;30.77;;;25.17;;
18720;SDS011;9489;50.948;3.114;2023-05-10T06:33:47;31.60;;;27.45;;
18720;SDS011;9489;50.948;3.114;2023-05-10T06:36:13;32.83;;;28.17;;
18720;SDS011;9489;50.948;3.114;2023-05-10T06:38:39;31.17;;;26.63;;
18720;SDS011;9489;50.948;3.114;2023-05-10T06:41:04;32.05;;;28.50;;
18720;SDS011;9489;50.948;3.114;2023-05-10T06:43:30;30.52;;;27.00;;
18720;SDS011;9489;50.948;3.114;2023-05-10T06:45:56;31.60;;;26.00;;
18720;SDS011;9489;50.948;3.114;2023-05-10T06:48:22;28.92;;;25.45;;
18720;SDS011;9489;50.948;3.114;2023-05-10T06:50:48;29.85;;;26.65;;
18720;SDS011;9489;50.948;3.114;2023-05-10T06:53:14;28.95;;;25.95;;
18720;SDS011;9489;50.948;3.114;2023-05-10T06:55:40;30.55;;;26.55;;
18720;SDS011;9489;50.948;3.114;2023-05-10T06:58:05;29.30;;;26.30;;
18720;SDS011;9489;50.948;3.114;2023-05-10T07:00:31;28.83;;;25.27;;
18720;SDS011;9489;50.948;3.114;2023-05-10T07:02:57;31.23;;;27.92;;
18720;SDS011;9489;50.948;3.114;2023-05-10T07:05:24;31.30;;;27.73;;
18720;SDS011;9489;50.948;3.114;2023-05-10T07:07:50;34.25;;;27.80;;
18720;SDS011;9489;50.948;3.114;2023-05-10T07:10:16;31.42;;;27.75;;
18720;SDS011;9489;50.948;3.114;2023-05-10T07:12:42;31.90;;;28.48;;
18720;SDS011;9489;50.948;3.114;2023-05-10T07:15:08;30.63;;;27.30;;
18720;SDS011;9489;50.948;3.114;2023-05-10T07:17:34;29.83;;;26.63;;
18720;SDS011;9489;50.948;3.114;2023-05-10T07:20:00;30.27;;;26.95;;
18720;SDS011;9489;50.948;3.114;2023-05-10T07:22:26;30.67;;;27.50;;
18720;SDS011;9489;50.948;3.114;2023-05-10T07:24:52;29.73;;;26.60;;
18720;SDS011;9489;50.948;3.114;2023-05-10T07:27:17;27.75;;;24.88;;
18720;SDS011;9489;50.948;3.114;2023-05-10T07:29:43;27.05;;;24.55;;
18720;SDS011;9489;50.948;3.114;2023-05-10T07:32:08;26.73;;;24.05;;
18720;SDS011;9489;50.948;3.114;2023-05-10T07:34:34;27.25;;;24.45;;
18720;SDS011;9489;50.948;3.114;2023-05-10T07:37:00;28.90;;;25.90;;
18720;SDS011;9489;50.948;3.114;2023-05-10T07:39:26;28.27;;;23.75;;
18720;SDS011;9489;50.948;3.114;2023-05-10T07:41:52;23.25;;;20.55;;
18720;SDS011;9489;50.948;3.114;2023-05-10T07:44:19;20.00;;;17.92;;
18720;SDS011;9489;50.948;3.114;2023-05-10T07:46:45;18.90;;;17.20;;
18720;SDS011;9489;50.948;3.114;2023-05-10T07:49:12;17.98;;;16.38;;
18720;SDS011;9489;50.948;3.114;2023-05-10T07:51:37;22.13;;;19.83;;
18720;SDS011;9489;50.948;3.114;2023-05-10T07:54:03;19.73;;;17.70;;
18720;SDS011;9489;50.948;3.114;2023-05-10T07:56:30;23.17;;;21.27;;
18720;SDS011;9489;50.948;3.114;2023-05-10T07:58:57;21.23;;;19.23;;
18720;SDS011;9489;50.948;3.114;2023-05-10T08:01:24;18.73;;;17.17;;
18720;SDS011;9489;50.948;3.114;2023-05-10T08:03:50;18.13;;;16.33;;
18720;SDS011;9489;50.948;3.114;2023-05-10T08:06:18;17.42;;;15.82;;
18720;SDS011;9489;50.948;3.114;2023-05-10T08:08:45;15.82;;;14.50;;
18720;SDS011;9489;50.948;3.114;2023-05-10T08:11:17;17.63;;;15.93;;
18720;SDS011;9489;50.948;3.114;2023-05-10T08:13:43;17.85;;;16.13;;
18720;SDS011;9489;50.948;3.114;2023-05-10T08:16:10;18.02;;;16.25;;
18720;SDS011;9489;50.948;3.114;2023-05-10T08:18:35;17.50;;;16.05;;
18720;SDS011;9489;50.948;3.114;2023-05-10T08:21:01;16.70;;;15.40;;
18720;SDS011;9489;50.948;3.114;2023-05-10T08:23:27;18.58;;;16.88;;
18720;SDS011;9489;50.948;3.114;2023-05-10T08:25:53;17.90;;;16.25;;
18720;SDS011;9489;50.948;3.114;2023-05-10T08:28:18;18.63;;;16.75;;
18720;SDS011;9489;50.948;3.114;2023-05-10T08:30:44;19.75;;;17.83;;
18720;SDS011;9489;50.948;3.114;2023-05-10T08:33:10;21.13;;;19.27;;
18720;SDS011;9489;50.948;3.114;2023-05-10T08:35:35;21.65;;;19.75;;
18720;SDS011;9489;50.948;3.114;2023-05-10T08:38:01;22.65;;;20.40;;
18720;SDS011;9489;50.948;3.114;2023-05-10T08:40:27;22.55;;;20.60;;
18720;SDS011;9489;50.948;3.114;2023-05-10T08:42:58;25.30;;;22.83;;
18720;SDS011;9489;50.948;3.114;2023-05-10T08:45:32;25.75;;;23.55;;
18720;SDS011;9489;50.948;3.114;2023-05-10T08:48:01;26.58;;;24.15;;
18720;SDS011;9489;50.948;3.114;2023-05-10T08:50:28;27.58;;;24.98;;
18720;SDS011;9489;50.948;3.114;2023-05-10T08:52:55;27.30;;;24.88;;
18720;SDS011;9489;50.948;3.114;2023-05-10T08:55:25;26.88;;;24.45;;
18720;SDS011;9489;50.948;3.114;2023-05-10T08:57:51;26.23;;;23.88;;
18720;SDS011;9489;50.948;3.114;2023-05-10T09:00:17;28.90;;;26.17;;
18720;SDS011;9489;50.948;3.114;2023-05-10T09:02:43;27.55;;;24.85;;
18720;SDS011;9489;50.948;3.114;2023-05-10T09:05:11;27.63;;;25.05;;
18720;SDS011;9489;50.948;3.114;2023-05-10T09:07:37;29.90;;;27.20;;
18720;SDS011;9489;50.948;3.114;2023-05-10T09:10:03;28.52;;;25.67;;
18720;SDS011;9489;50.948;3.114;2023-05-10T09:12:30;26.45;;;24.05;;
18720;SDS011;9489;50.948;3.114;2023-05-10T09:14:55;27.40;;;24.98;;
18720;SDS011;9489;50.948;3.114;2023-05-10T09:17:24;29.95;;;27.10;;
18720;SDS011;9489;50.948;3.114;2023-05-10T09:20:02;27.00;;;23.77;;
18720;SDS011;9489;50.948;3.114;2023-05-10T09:22:32;27.42;;;21.17;;
18720;SDS011;9489;50.948;3.114;2023-05-10T09:25:12;25.73;;;20.92;;
18720;SDS011;9489;50.948;3.114;2023-05-10T09:27:39;22.95;;;20.05;;
18720;SDS011;9489;50.948;3.114;2023-05-10T09:30:06;26.27;;;20.58;;
18720;SDS011;9489;50.948;3.114;2023-05-10T09:32:39;24.05;;;19.65;;
18720;SDS011;9489;50.948;3.114;2023-05-10T09:35:07;26.45;;;19.92;;
18720;SDS011;9489;50.948;3.114;2023-05-10T09:37:33;22.60;;;20.15;;
18720;SDS011;9489;50.948;3.114;2023-05-10T09:39:58;26.65;;;24.00;;
18720;SDS011;9489;50.948;3.114;2023-05-10T09:42:24;22.77;;;20.33;;
18720;SDS011;9489;50.948;3.114;2023-05-10T09:44:50;24.08;;;19.42;;
18720;SDS011;9489;50.948;3.114;2023-05-10T09:47:19;22.05;;;17.65;;
18720;SDS011;9489;50.948;3.114;2023-05-10T09:49:53;19.05;;;16.92;;
18720;SDS011;9489;50.948;3.114;2023-05-10T09:52:22;20.33;;;15.48;;
18720;SDS011;9489;50.948;3.114;2023-05-10T09:54:54;18.40;;;15.77;;
18720;SDS011;9489;50.948;3.114;2023-05-10T09:57:21;19.60;;;14.52;;
18720;SDS011;9489;50.948;3.114;2023-05-10T09:59:47;15.98;;;14.30;;
18720;SDS011;9489;50.948;3.114;2023-05-10T10:02:14;17.35;;;15.20;;
18720;SDS011;9489;50.948;3.114;2023-05-10T10:04:40;16.60;;;13.18;;
18720;SDS011;9489;50.948;3.114;2023-05-10T10:07:06;14.60;;;13.20;;
18720;SDS011;9489;50.948;3.114;2023-05-10T10:09:33;14.02;;;12.10;;
18720;SDS011;9489;50.948;3.114;2023-05-10T10:12:00;16.13;;;13.38;;
18720;SDS011;9489;50.948;3.114;2023-05-10T10:14:27;14.27;;;12.73;;
18720;SDS011;9489;50.948;3.114;2023-05-10T10:16:53;15.45;;;12.68;;
18720;SDS011;9489;50.948;3.114;2023-05-10T10:19:19;13.65;;;12.32;;
18720;SDS011;9489;50.948;3.114;2023-05-10T10:21:46;12.80;;;11.02;;
18720;SDS011;9489;50.948;3.114;2023-05-10T10:24:15;13.23;;;11.88;;
18720;SDS011;9489;50.948;3.114;2023-05-10T10:26:41;14.45;;;11.82;;
18720;SDS011;9489;50.948;3.114;2023-05-10T10:34:39;13.23;;;10.60;;
18720;SDS011;9489;50.948;3.114;2023-05-10T10:37:06;11.30;;;10.13;;
18720;SDS011;9489;50.948;3.114;2023-05-10T10:39:32;12.43;;;9.93;;
18720;SDS011;9489;50.948;3.114;2023-05-10T10:41:58;11.85;;;8.65;;
18720;SDS011;9489;50.948;3.114;2023-05-10T10:49:31;10.52;;;9.40;;
18720;SDS011;9489;50.948;3.114;2023-05-10T10:55:14;11.30;;;8.52;;
18720;SDS011;9489;50.948;3.114;2023-05-10T11:07:57;12.13;;;8.52;;
18720;SDS011;9489;50.948;3.114;2023-05-10T11:10:24;10.73;;;9.20;;
18720;SDS011;9489;50.948;3.114;2023-05-10T11:13:01;12.93;;;9.85;;
18720;SDS011;9489;50.948;3.114;2023-05-10T11:15:28;11.85;;;9.50;;
18720;SDS011;9489;50.948;3.114;2023-05-10T11:17:55;12.27;;;8.18;;
18720;SDS011;9489;50.948;3.114;2023-05-10T11:20:21;13.35;;;9.38;;
18720;SDS011;9489;50.948;3.114;2023-05-10T11:22:52;12.48;;;8.60;;
18720;SDS011;9489;50.948;3.114;2023-05-10T11:25:19;9.05;;;8.07;;
18720;SDS011;9489;50.948;3.114;2023-05-10T11:27:46;10.68;;;8.38;;
18720;SDS011;9489;50.948;3.114;2023-05-10T11:30:13;10.85;;;7.72;;
18720;SDS011;9489;50.948;3.114;2023-05-10T11:32:39;9.63;;;7.22;;
18720;SDS011;9489;50.948;3.114;2023-05-10T11:35:09;12.32;;;7.35;;
18720;SDS011;9489;50.948;3.114;2023-05-10T11:37:36;7.45;;;6.45;;
18720;SDS011;9489;50.948;3.114;2023-05-10T11:40:03;9.75;;;7.10;;
18720;SDS011;9489;50.948;3.114;2023-05-10T11:42:29;11.02;;;7.82;;
18720;SDS011;9489;50.948;3.114;2023-05-10T11:44:55;11.45;;;6.60;;
18720;SDS011;9489;50.948;3.114;2023-05-10T11:47:21;8.68;;;6.85;;
18720;SDS011;9489;50.948;3.114;2023-05-10T11:49:47;8.25;;;6.55;;
18720;SDS011;9489;50.948;3.114;2023-05-10T11:52:13;7.40;;;6.22;;
18720;SDS011;9489;50.948;3.114;2023-05-10T11:54:51;10.27;;;7.15;;
18720;SDS011;9489;50.948;3.114;2023-05-10T11:57:18;9.95;;;6.35;;
18720;SDS011;9489;50.948;3.114;2023-05-10T11:59:52;8.18;;;6.40;;
18720;SDS011;9489;50.948;3.114;2023-05-10T12:02:19;12.57;;;6.22;;
18720;SDS011;9489;50.948;3.114;2023-05-10T12:04:45;9.15;;;5.70;;
18720;SDS011;9489;50.948;3.114;2023-05-10T12:07:10;7.32;;;4.57;;
18720;SDS011;9489;50.948;3.114;2023-05-10T12:09:36;8.30;;;5.22;;
18720;SDS011;9489;50.948;3.114;2023-05-10T12:12:02;8.65;;;4.60;;
18720;SDS011;9489;50.948;3.114;2023-05-10T12:14:28;8.88;;;4.47;;
18720;SDS011;9489;50.948;3.114;2023-05-10T12:16:58;6.30;;;3.70;;
18720;SDS011;9489;50.948;3.114;2023-05-10T12:19:23;9.43;;;4.07;;
18720;SDS011;9489;50.948;3.114;2023-05-10T12:21:49;6.07;;;3.63;;
18720;SDS011;9489;50.948;3.114;2023-05-10T12:24:15;6.72;;;3.50;;
18720;SDS011;9489;50.948;3.114;2023-05-10T12:26:47;8.10;;;3.85;;
18720;SDS011;9489;50.948;3.114;2023-05-10T12:29:16;7.30;;;4.13;;
18720;SDS011;9489;50.948;3.114;2023-05-10T12:34:32;7.70;;;3.97;;
18720;SDS011;9489;50.948;3.114;2023-05-10T12:37:00;6.40;;;3.20;;
18720;SDS011;9489;50.948;3.114;2023-05-10T12:39:37;6.05;;;3.17;;
18720;SDS011;9489;50.948;3.114;2023-05-10T12:42:07;4.30;;;3.35;;
18720;SDS011;9489;50.948;3.114;2023-05-10T12:44:33;5.93;;;3.53;;
18720;SDS011;9489;50.948;3.114;2023-05-10T12:46:59;9.32;;;3.40;;
18720;SDS011;9489;50.948;3.114;2023-05-10T12:49:24;4.80;;;3.35;;
18720;SDS011;9489;50.948;3.114;2023-05-10T12:51:50;6.15;;;3.00;;
18720;SDS011;9489;50.948;3.114;2023-05-10T12:54:16;6.03;;;3.90;;
18720;SDS011;9489;50.948;3.114;2023-05-10T12:56:41;7.22;;;3.60;;
18720;SDS011;9489;50.948;3.114;2023-05-10T12:59:07;8.75;;;4.28;;
18720;SDS011;9489;50.948;3.114;2023-05-10T13:01:33;5.00;;;3.80;;
18720;SDS011;9489;50.948;3.114;2023-05-10T13:03:59;5.30;;;3.13;;
18720;SDS011;9489;50.948;3.114;2023-05-10T13:06:25;8.23;;;3.38;;
18720;SDS011;9489;50.948;3.114;2023-05-10T13:08:50;7.43;;;4.03;;
18720;SDS011;9489;50.948;3.114;2023-05-10T13:11:16;6.45;;;3.88;;
18720;SDS011;9489;50.948;3.114;2023-05-10T13:13:44;8.68;;;3.70;;
18720;SDS011;9489;50.948;3.114;2023-05-10T13:16:10;5.03;;;3.03;;
18720;SDS011;9489;50.948;3.114;2023-05-10T13:18:36;7.82;;;3.63;;
18720;SDS011;9489;50.948;3.114;2023-05-10T13:21:01;7.15;;;3.70;;
18720;SDS011;9489;50.948;3.114;2023-05-10T13:23:29;7.95;;;3.60;;
18720;SDS011;9489;50.948;3.114;2023-05-10T13:25:54;6.38;;;3.83;;
18720;SDS011;9489;50.948;3.114;2023-05-10T13:28:20;6.53;;;3.38;;
18720;SDS011;9489;50.948;3.114;2023-05-10T13:30:45;6.38;;;3.67;;
18720;SDS011;9489;50.948;3.114;2023-05-10T13:33:11;7.00;;;3.05;;
18720;SDS011;9489;50.948;3.114;2023-05-10T13:35:37;7.07;;;3.55;;
18720;SDS011;9489;50.948;3.114;2023-05-10T13:38:02;6.05;;;3.35;;
18720;SDS011;9489;50.948;3.114;2023-05-10T13:40:28;7.03;;;3.40;;
18720;SDS011;9489;50.948;3.114;2023-05-10T13:42:54;6.43;;;2.80;;
18720;SDS011;9489;50.948;3.114;2023-05-10T13:45:19;8.38;;;3.00;;
18720;SDS011;9489;50.948;3.114;2023-05-10T13:47:45;6.30;;;3.60;;
18720;SDS011;9489;50.948;3.114;2023-05-10T13:50:11;5.00;;;3.58;;
18720;SDS011;9489;50.948;3.114;2023-05-10T13:52:37;8.23;;;3.70;;
18720;SDS011;9489;50.948;3.114;2023-05-10T13:55:02;8.10;;;4.40;;
18720;SDS011;9489;50.948;3.114;2023-05-10T13:57:28;9.13;;;4.43;;
18720;SDS011;9489;50.948;3.114;2023-05-10T13:59:55;8.38;;;4.97;;
18720;SDS011;9489;50.948;3.114;2023-05-10T14:02:22;7.40;;;4.90;;
18720;SDS011;9489;50.948;3.114;2023-05-10T14:04:48;7.22;;;4.55;;
18720;SDS011;9489;50.948;3.114;2023-05-10T14:07:13;9.68;;;4.63;;
18720;SDS011;9489;50.948;3.114;2023-05-10T14:09:39;7.10;;;4.40;;
18720;SDS011;9489;50.948;3.114;2023-05-10T14:12:05;6.45;;;3.95;;
18720;SDS011;9489;50.948;3.114;2023-05-10T14:14:30;6.95;;;4.00;;
18720;SDS011;9489;50.948;3.114;2023-05-10T14:16:56;7.80;;;3.95;;
18720;SDS011;9489;50.948;3.114;2023-05-10T14:19:22;5.95;;;3.35;;
18720;SDS011;9489;50.948;3.114;2023-05-10T14:21:47;7.38;;;3.42;;
18720;SDS011;9489;50.948;3.114;2023-05-10T14:24:13;6.78;;;3.75;;
18720;SDS011;9489;50.948;3.114;2023-05-10T14:26:39;8.27;;;3.83;;
18720;SDS011;9489;50.948;3.114;2023-05-10T14:29:04;8.50;;;3.90;;
18720;SDS011;9489;50.948;3.114;2023-05-10T14:31:30;6.70;;;3.90;;
18720;SDS011;9489;50.948;3.114;2023-05-10T14:33:56;6.63;;;3.22;;
18720;SDS011;9489;50.948;3.114;2023-05-10T14:36:22;6.88;;;3.78;;
18720;SDS011;9489;50.948;3.114;2023-05-10T14:38:48;7.28;;;3.63;;
18720;SDS011;9489;50.948;3.114;2023-05-10T14:41:15;6.75;;;4.00;;
18720;SDS011;9489;50.948;3.114;2023-05-10T14:43:42;9.32;;;3.83;;
18720;SDS011;9489;50.948;3.114;2023-05-10T14:46:08;7.72;;;3.67;;
18720;SDS011;9489;50.948;3.114;2023-05-10T14:48:34;10.82;;;4.32;;
18720;SDS011;9489;50.948;3.114;2023-05-10T14:51:00;8.55;;;3.22;;
18720;SDS011;9489;50.948;3.114;2023-05-10T14:53:25;6.45;;;3.00;;
18720;SDS011;9489;50.948;3.114;2023-05-10T14:55:51;6.20;;;3.00;;
18720;SDS011;9489;50.948;3.114;2023-05-10T14:58:17;7.32;;;3.17;;
18720;SDS011;9489;50.948;3.114;2023-05-10T15:00:42;6.30;;;2.90;;
18720;SDS011;9489;50.948;3.114;2023-05-10T15:03:08;7.70;;;3.45;;
18720;SDS011;9489;50.948;3.114;2023-05-10T15:05:34;8.25;;;3.45;;
18720;SDS011;9489;50.948;3.114;2023-05-10T15:08:02;5.53;;;2.83;;
18720;SDS011;9489;50.948;3.114;2023-05-10T15:10:27;8.10;;;3.45;;
18720;SDS011;9489;50.948;3.114;2023-05-10T15:12:53;8.60;;;3.20;;
18720;SDS011;9489;50.948;3.114;2023-05-10T15:15:19;7.28;;;3.47;;
18720;SDS011;9489;50.948;3.114;2023-05-10T15:17:45;7.28;;;3.53;;
18720;SDS011;9489;50.948;3.114;2023-05-10T15:20:11;6.53;;;3.50;;
18720;SDS011;9489;50.948;3.114;2023-05-10T15:22:36;11.55;;;3.75;;
18720;SDS011;9489;50.948;3.114;2023-05-10T15:25:03;7.40;;;3.10;;
18720;SDS011;9489;50.948;3.114;2023-05-10T15:27:29;7.80;;;3.53;;